createdAt,value
2023-02-24T00:00:14.082Z,99.99
2023-02-24T00:01:13.805Z,99.99
2023-02-24T00:02:14.123Z,99.99
2023-02-24T00:03:14.367Z,99.99
2023-02-24T00:04:14.032Z,99.97
2023-02-24T00:05:14.087Z,99.87
2023-02-24T00:06:13.980Z,99.4
2023-02-24T00:07:13.990Z,99.21
2023-02-24T00:08:14.003Z,98.92
2023-02-24T00:09:13.679Z,98.83
2023-02-24T00:10:14.002Z,98.73
2023-02-24T00:11:13.948Z,98.26
2023-02-24T00:12:14.066Z,97.78
2023-02-24T00:13:13.622Z,97.78
2023-02-24T00:14:13.608Z,97.22
2023-02-24T00:15:13.843Z,97.22
2023-02-24T00:16:14.022Z,96.64
2023-02-24T00:17:14.005Z,96.26
2023-02-24T00:18:13.799Z,95.79
2023-02-24T00:19:13.560Z,95.79
2023-02-24T00:20:13.793Z,95.79
2023-02-24T00:21:13.797Z,95.31
2023-02-24T00:22:13.753Z,95.31
2023-02-24T00:23:13.723Z,94.56
2023-02-24T00:24:13.714Z,95.12
2023-02-24T00:25:13.436Z,94.74
2023-02-24T00:26:13.679Z,94.74
2023-02-24T00:27:13.775Z,94.56
2023-02-24T00:28:13.652Z,93.89
2023-02-24T00:29:13.416Z,93.51
2023-02-24T00:30:13.646Z,92.94
2023-02-24T00:31:13.858Z,92.85
2023-02-24T00:32:14.076Z,92.66
2023-02-24T00:33:13.585Z,92.09
2023-02-24T00:34:13.576Z,92.47
2023-02-24T00:35:13.582Z,91.8
2023-02-24T00:36:13.545Z,91.99
2023-02-24T00:37:13.551Z,91.89
2023-02-24T00:38:13.263Z,91.61
2023-02-24T00:39:13.257Z,91.24
2023-02-24T00:40:13.499Z,91.14
2023-02-24T00:41:13.475Z,90.95
2023-02-24T00:42:13.463Z,91.04
2023-02-24T00:43:13.192Z,90.95
2023-02-24T00:44:13.449Z,91.14
2023-02-24T00:45:13.157Z,90.28
2023-02-24T00:46:13.647Z,90.38
2023-02-24T00:47:13.386Z,89.9
2023-02-24T00:48:13.365Z,90.19
2023-02-24T00:49:13.358Z,90.28
2023-02-24T00:50:13.340Z,90.19
2023-02-24T00:51:13.347Z,89.72
2023-02-24T00:52:13.319Z,89.43
2023-02-24T00:53:13.318Z,89.53
2023-02-24T00:54:13.279Z,89.43
2023-02-24T00:55:13.003Z,88.95
2023-02-24T00:56:13.252Z,89.14
2023-02-24T00:57:13.261Z,88.57
2023-02-24T00:58:13.218Z,88.76
2023-02-24T00:59:13.211Z,88.86
2023-02-24T01:00:13.187Z,88.2
2023-02-24T01:01:13.281Z,88.57
2023-02-24T01:02:13.182Z,88.48
2023-02-24T01:03:13.153Z,88.95
2023-02-24T01:04:13.310Z,88.2
2023-02-24T01:05:12.867Z,88.86
2023-02-24T01:06:13.098Z,88.57
2023-02-24T01:07:13.733Z,88.67
2023-02-24T01:08:13.070Z,88.39
2023-02-24T01:09:13.077Z,88.76
2023-02-24T01:10:12.801Z,88.48
2023-02-24T01:11:13.022Z,87.91
2023-02-24T01:12:12.920Z,88.01
2023-02-24T01:13:12.733Z,88.2
2023-02-24T01:14:12.978Z,88.29
2023-02-24T01:15:12.960Z,88.2
2023-02-24T01:16:12.851Z,88.29
2023-02-24T01:17:12.946Z,88.1
2023-02-24T01:18:13.679Z,88.01
2023-02-24T01:19:12.900Z,88.01
2023-02-24T01:20:12.885Z,88.01
2023-02-24T01:21:12.624Z,87.82
2023-02-24T01:22:12.848Z,87.82
2023-02-24T01:23:12.862Z,87.72
2023-02-24T01:24:12.826Z,87.72
2023-02-24T01:25:12.834Z,88.01
2023-02-24T01:26:12.802Z,87.53
2023-02-24T01:27:12.792Z,87.82
2023-02-24T01:28:12.508Z,88.01
2023-02-24T01:29:12.748Z,88.01
2023-02-24T01:30:12.730Z,87.72
2023-02-24T01:31:12.654Z,87.62
2023-02-24T01:32:13.149Z,87.53
2023-02-24T01:33:12.849Z,87.53
2023-02-24T01:34:12.414Z,87.53
2023-02-24T01:35:12.661Z,87.62
2023-02-24T01:36:12.638Z,87.72
2023-02-24T01:37:12.636Z,87.34
2023-02-24T01:38:12.359Z,87.53
2023-02-24T01:39:12.373Z,87.62
2023-02-24T01:40:12.318Z,87.82
2023-02-24T01:41:12.596Z,87.43
2023-02-24T01:42:12.555Z,87.62
2023-02-24T01:43:12.278Z,87.53
2023-02-24T01:44:12.521Z,87.24
2023-02-24T01:45:12.254Z,86.77
2023-02-24T01:46:12.703Z,86.96
2023-02-24T01:47:12.502Z,87.05
2023-02-24T01:48:12.469Z,86.49
2023-02-24T01:49:12.452Z,86.68
2023-02-24T01:50:12.442Z,86.68
2023-02-24T01:51:12.154Z,86.49
2023-02-24T01:52:12.413Z,86.49
2023-02-24T01:53:12.403Z,86.58
2023-02-24T01:54:12.589Z,86.49
2023-02-24T01:55:12.136Z,86.58
2023-02-24T01:56:12.092Z,87.05
2023-02-24T01:57:12.367Z,86.58
2023-02-24T01:58:12.316Z,87.15
2023-02-24T01:59:12.037Z,87.05
2023-02-24T02:00:12.365Z,86.96
2023-02-24T02:01:12.272Z,87.05
2023-02-24T02:02:12.526Z,87.24
2023-02-24T02:03:12.230Z,86.96
2023-02-24T02:04:12.218Z,86.58
2023-02-24T02:05:12.211Z,86.49
2023-02-24T02:06:12.195Z,86.58
2023-02-24T02:07:12.188Z,86.49
2023-02-24T02:08:12.168Z,86.49
2023-02-24T02:09:12.155Z,87.24
2023-02-24T02:10:12.139Z,87.05
2023-02-24T02:11:12.130Z,86.39
2023-02-24T02:12:12.113Z,85.82
2023-02-24T02:13:12.109Z,85.82
2023-02-24T02:14:12.072Z,86.01
2023-02-24T02:15:12.049Z,85.91
2023-02-24T02:16:12.124Z,85.91
2023-02-24T02:17:12.021Z,86.01
2023-02-24T02:18:12.002Z,86.01
2023-02-24T02:19:11.987Z,86.49
2023-02-24T02:20:11.717Z,86.68
2023-02-24T02:21:11.696Z,86.2
2023-02-24T02:22:11.941Z,86.11
2023-02-24T02:23:11.923Z,86.01
2023-02-24T02:24:11.657Z,86.77
2023-02-24T02:25:11.894Z,86.68
2023-02-24T02:26:11.627Z,86.49
2023-02-24T02:27:12.361Z,85.72
2023-02-24T02:28:12.579Z,86.3
2023-02-24T02:29:12.601Z,86.01
2023-02-24T02:30:12.548Z,86.68
2023-02-24T02:31:12.693Z,86.11
2023-02-24T02:32:12.895Z,86.3
2023-02-24T02:33:12.250Z,85.82
2023-02-24T02:34:12.491Z,85.63
2023-02-24T02:35:12.219Z,85.53
2023-02-24T02:36:12.217Z,85.82
2023-02-24T02:37:12.444Z,85.72
2023-02-24T02:38:12.430Z,85.72
2023-02-24T02:39:12.419Z,85.72
2023-02-24T02:40:12.405Z,85.91
2023-02-24T02:41:12.379Z,86.49
2023-02-24T02:42:12.108Z,86.3
2023-02-24T02:43:12.374Z,86.01
2023-02-24T02:44:12.342Z,86.3
2023-02-24T02:45:12.354Z,85.91
2023-02-24T02:46:12.427Z,85.72
2023-02-24T02:47:12.285Z,85.82
2023-02-24T02:48:12.022Z,85.91
2023-02-24T02:49:12.261Z,85.82
2023-02-24T02:50:12.252Z,85.72
2023-02-24T02:51:12.234Z,85.97
2023-02-24T02:52:12.212Z,85.91
2023-02-24T02:53:12.218Z,86.54
2023-02-24T02:54:12.186Z,86.44
2023-02-24T02:55:12.175Z,86.35
2023-02-24T02:56:12.141Z,86.58
2023-02-24T02:57:11.884Z,86.44
2023-02-24T02:58:12.121Z,86.44
2023-02-24T02:59:12.126Z,85.97
2023-02-24T03:00:11.833Z,86.01
2023-02-24T03:01:12.344Z,86.07
2023-02-24T03:02:12.062Z,86.58
2023-02-24T03:03:12.048Z,86.68
2023-02-24T03:04:12.025Z,85.78
2023-02-24T03:05:11.754Z,85.68
2023-02-24T03:06:12.032Z,86.07
2023-02-24T03:07:11.980Z,85.97
2023-02-24T03:08:11.721Z,85.97
2023-02-24T03:09:11.947Z,86.07
2023-02-24T03:10:11.932Z,85.97
2023-02-24T03:11:11.686Z,86.44
2023-02-24T03:12:11.900Z,86.35
2023-02-24T03:13:11.905Z,86.44
2023-02-24T03:14:11.868Z,86.44
2023-02-24T03:15:11.883Z,86.07
2023-02-24T03:16:11.889Z,86.35
2023-02-24T03:17:11.849Z,86.35
2023-02-24T03:18:11.816Z,86.25
2023-02-24T03:19:11.796Z,85.78
2023-02-24T03:20:11.780Z,86.16
2023-02-24T03:21:11.513Z,85.78
2023-02-24T03:22:11.745Z,85.59
2023-02-24T03:23:11.749Z,86.07
2023-02-24T03:24:11.453Z,84.92
2023-02-24T03:25:11.696Z,85.02
2023-02-24T03:26:11.677Z,85.02
2023-02-24T03:27:11.415Z,85.11
2023-02-24T03:28:11.663Z,85.4
2023-02-24T03:29:11.388Z,85.21
2023-02-24T03:30:11.618Z,84.83
2023-02-24T03:31:11.758Z,84.92
2023-02-24T03:32:11.627Z,85.11
2023-02-24T03:49:32.292Z,90.95
2023-02-24T03:50:31.991Z,91.19
2023-02-24T03:51:32.203Z,91.05
2023-02-24T03:52:31.938Z,90.38
2023-02-24T03:53:31.930Z,89.62
2023-02-24T03:54:32.168Z,89.43
2023-02-24T03:55:31.875Z,88.77
2023-02-24T03:56:32.112Z,88.58
2023-02-24T03:57:32.098Z,87.73
2023-02-24T03:58:32.080Z,87.63
2023-02-24T03:59:32.063Z,86.68
2023-02-24T04:00:32.051Z,86.97
2023-02-24T04:01:32.025Z,85.93
2023-02-24T04:02:32.130Z,85.64
2023-02-24T04:03:31.736Z,85.26
2023-02-24T04:04:31.791Z,84.5
2023-02-24T04:05:32.009Z,84.03
2023-02-24T04:06:31.687Z,83.08
2023-02-24T04:07:31.925Z,83.46
2023-02-24T04:08:31.911Z,82.23
2023-02-24T04:09:31.887Z,82.32
2023-02-24T04:10:31.646Z,81.94
2023-02-24T04:11:31.862Z,81.56
2023-02-24T04:12:31.945Z,81.47
2023-02-24T04:13:31.823Z,80.62
2023-02-24T04:14:31.827Z,81.09
2023-02-24T04:15:31.705Z,80.04
2023-02-24T04:16:31.522Z,80.04
2023-02-24T04:17:31.753Z,80.24
2023-02-24T04:18:31.743Z,80.04
2023-02-24T04:19:31.718Z,79.57
2023-02-24T04:20:31.719Z,79.76
2023-02-24T04:21:31.737Z,79.57
2023-02-24T04:22:31.422Z,79.47
2023-02-24T04:23:31.658Z,79.47
2023-02-24T04:24:31.648Z,79
2023-02-24T04:25:31.370Z,79
2023-02-24T04:26:31.351Z,78.91
2023-02-24T04:27:31.606Z,79.1
2023-02-24T04:28:31.569Z,78.81
2023-02-24T04:29:31.555Z,78.81
2023-02-24T04:30:31.288Z,78.62
2023-02-24T04:31:32.487Z,79
2023-02-24T04:32:32.523Z,78.81
2023-02-24T04:33:31.934Z,78.72
2023-02-24T04:34:31.921Z,78.91
2023-02-24T04:35:32.162Z,78.91
2023-02-24T04:36:32.148Z,78.91
2023-02-24T04:37:32.187Z,78.72
2023-02-24T04:38:31.857Z,79
2023-02-24T04:39:32.096Z,79.1
2023-02-24T04:40:32.110Z,78.72
2023-02-24T04:41:32.091Z,79
2023-02-24T04:42:31.805Z,79.57
2023-02-24T04:43:31.774Z,79.47
2023-02-24T04:44:32.109Z,79.57
2023-02-24T04:45:31.994Z,79.85
2023-02-24T04:46:32.052Z,79.85
2023-02-24T04:47:31.709Z,79.38
2023-02-24T04:48:31.943Z,79.47
2023-02-24T04:49:31.668Z,79.47
2023-02-24T04:50:31.920Z,79.47
2023-02-24T04:51:31.901Z,79.38
2023-02-24T04:52:31.876Z,79.47
2023-02-24T04:53:31.955Z,79.57
2023-02-24T04:54:31.837Z,79.1
2023-02-24T04:55:31.964Z,78.77
2023-02-24T04:56:31.822Z,78.72
2023-02-24T04:57:31.807Z,78.67
2023-02-24T04:58:31.806Z,79.06
2023-02-24T04:59:31.763Z,78.72
2023-02-24T05:00:31.751Z,78.77
2023-02-24T05:01:31.748Z,78.62
2023-02-24T05:02:31.718Z,78.91
2023-02-24T05:03:31.615Z,78.81
2023-02-24T05:04:31.887Z,78.72
2023-02-24T05:05:31.664Z,79.38
2023-02-24T05:06:31.647Z,79.53
2023-02-24T05:07:31.375Z,79.63
2023-02-24T05:08:31.360Z,79.82
2023-02-24T05:09:31.751Z,79.53
2023-02-24T05:10:31.583Z,79.63
2023-02-24T05:11:31.578Z,79.63
2023-02-24T05:12:31.297Z,79.82
2023-02-24T05:13:31.277Z,79.63
2023-02-24T05:14:31.524Z,79.63
2023-02-24T05:15:31.408Z,80
2023-02-24T05:16:31.632Z,79.53
2023-02-24T05:17:31.489Z,79.34
2023-02-24T05:18:31.476Z,79.63
2023-02-24T05:19:31.434Z,79.82
2023-02-24T05:20:31.422Z,79.63
2023-02-24T05:21:31.486Z,79.44
2023-02-24T05:22:31.184Z,79.25
2023-02-24T05:23:31.399Z,79.82
2023-02-24T05:24:31.372Z,79.53
2023-02-24T05:25:31.388Z,79.34
2023-02-24T05:26:31.323Z,79.72
2023-02-24T05:27:31.309Z,79.53
2023-02-24T05:28:31.282Z,79.82
2023-02-24T05:29:31.265Z,79.63
2023-02-24T05:30:31.311Z,80.1
2023-02-24T05:31:31.637Z,80.1
2023-02-24T05:32:31.558Z,80
2023-02-24T05:33:30.943Z,80.1
2023-02-24T05:34:31.186Z,79.91
2023-02-24T05:35:31.178Z,79.53
2023-02-24T05:36:30.893Z,79.44
2023-02-24T05:37:31.131Z,79.53
2023-02-24T05:38:30.856Z,79.72
2023-02-24T05:39:31.130Z,79.34
2023-02-24T05:40:31.083Z,79.82
2023-02-24T05:41:31.111Z,79.91
2023-02-24T05:42:31.064Z,79.72
2023-02-24T05:43:31.046Z,79.34
2023-02-24T05:44:31.023Z,79.25
2023-02-24T05:45:31.004Z,79.15
2023-02-24T05:46:31.119Z,79.91
2023-02-24T05:47:30.955Z,79.63
2023-02-24T05:48:30.946Z,79.72
2023-02-24T05:49:30.666Z,79.44
2023-02-24T05:50:30.652Z,79.44
2023-02-24T05:51:30.901Z,79.63
2023-02-24T05:52:30.880Z,79.63
2023-02-24T05:53:30.904Z,79.72
2023-02-24T05:54:30.843Z,79.82
2023-02-24T05:55:30.831Z,79.53
2023-02-24T05:56:30.806Z,79.91
2023-02-24T05:57:30.842Z,79.91
2023-02-24T05:58:30.776Z,79.63
2023-02-24T05:59:30.770Z,79.63
2023-02-24T06:00:30.483Z,79.44
2023-02-24T06:01:30.724Z,79.72
2023-02-24T06:02:30.900Z,79.53
2023-02-24T06:03:30.751Z,79.63
2023-02-24T06:04:30.678Z,79.53
2023-02-24T06:05:30.663Z,79.15
2023-02-24T06:06:30.392Z,79.25
2023-02-24T06:07:30.625Z,79.34
2023-02-24T06:08:30.616Z,79.34
2023-02-24T06:09:30.606Z,79.06
2023-02-24T06:10:30.587Z,78.67
2023-02-24T06:11:30.694Z,78.67
2023-02-24T06:12:30.552Z,78.77
2023-02-24T06:13:30.608Z,78.67
2023-02-24T06:14:30.259Z,78.87
2023-02-24T06:15:30.497Z,78.77
2023-02-24T06:16:30.379Z,79.06
2023-02-24T06:17:30.451Z,78.87
2023-02-24T06:18:30.441Z,78.77
2023-02-24T06:19:30.172Z,79.44
2023-02-24T06:20:30.408Z,79.34
2023-02-24T06:21:30.391Z,79.44
2023-02-24T06:22:30.374Z,78.67
2023-02-24T06:23:30.358Z,78.67
2023-02-24T06:24:30.355Z,78.67
2023-02-24T06:25:30.340Z,78.77
2023-02-24T06:26:30.379Z,78.58
2023-02-24T06:27:30.296Z,78.87
2023-02-24T06:28:30.018Z,78.87
2023-02-24T06:29:30.312Z,79.06
2023-02-24T06:30:30.316Z,79.06
2023-02-24T06:31:30.121Z,79.06
2023-02-24T06:32:30.418Z,78.67
2023-02-24T06:33:30.210Z,78.58
2023-02-24T06:34:30.227Z,79.25
2023-02-24T06:35:30.182Z,78.77
2023-02-24T06:36:29.889Z,78.77
2023-02-24T06:37:30.143Z,79.15
2023-02-24T06:38:29.858Z,78.87
2023-02-24T06:39:30.101Z,78.77
2023-02-24T06:40:30.078Z,78.77
2023-02-24T06:41:30.064Z,78.77
2023-02-24T06:42:30.046Z,78.87
2023-02-24T06:43:30.031Z,79.06
2023-02-24T06:44:30.019Z,78.58
2023-02-24T06:45:30.055Z,79.06
2023-02-24T06:46:29.853Z,79.44
2023-02-24T06:47:29.974Z,79.25
2023-02-24T06:48:29.690Z,79.82
2023-02-24T06:49:29.940Z,79.15
2023-02-24T06:50:29.919Z,79.34
2023-02-24T06:51:29.905Z,79.34
2023-02-24T06:52:29.638Z,79.34
2023-02-24T06:53:29.612Z,79.82
2023-02-24T06:54:29.857Z,79.82
2023-02-24T06:55:29.862Z,79.53
2023-02-24T06:56:32.077Z,79.82
2023-02-24T06:57:29.808Z,79.25
2023-02-24T06:58:29.527Z,79.34
2023-02-24T06:59:29.536Z,79.25
2023-02-24T07:00:29.769Z,79.25
2023-02-24T07:01:29.881Z,79.53
2023-02-24T07:02:29.716Z,78.67
2023-02-24T07:03:29.700Z,79.15
2023-02-24T07:04:31.434Z,79.15
2023-02-24T07:05:29.679Z,78.58
2023-02-24T07:06:29.666Z,78.67
2023-02-24T07:07:29.644Z,78.87
2023-02-24T07:08:29.636Z,78.87
2023-02-24T07:09:29.601Z,78.87
2023-02-24T07:10:29.340Z,78.77
2023-02-24T07:11:29.578Z,78.96
2023-02-24T07:12:29.563Z,79.15
2023-02-24T07:13:29.550Z,78.67
2023-02-24T07:14:29.525Z,78.67
2023-02-24T07:15:29.507Z,79.15
2023-02-24T07:16:29.561Z,78.77
2023-02-24T07:17:29.519Z,78.96
2023-02-24T07:18:29.214Z,78.67
2023-02-24T07:19:29.531Z,78.72
2023-02-24T07:20:29.515Z,78.72
2023-02-24T07:21:29.409Z,78.91
2023-02-24T07:22:29.134Z,78.62
2023-02-24T07:23:29.379Z,78.62
2023-02-24T07:24:29.366Z,78.62
2023-02-24T07:25:29.344Z,79
2023-02-24T07:26:29.080Z,78.91
2023-02-24T07:27:29.345Z,78.34
2023-02-24T07:28:29.343Z,78.15
2023-02-24T07:29:29.053Z,77.77
2023-02-24T07:30:29.470Z,78.53
2023-02-24T07:31:29.415Z,79
2023-02-24T07:32:29.316Z,78.81
2023-02-24T07:33:29.262Z,78.72
2023-02-24T07:34:28.936Z,78.91
2023-02-24T07:35:29.176Z,78.53
2023-02-24T07:36:29.168Z,78.53
2023-02-24T07:37:29.142Z,77.67
2023-02-24T07:38:28.883Z,78.15
2023-02-24T07:39:29.114Z,78.53
2023-02-24T07:40:29.204Z,77.96
2023-02-24T07:41:31.239Z,78.15
2023-02-24T07:42:29.124Z,78.62
2023-02-24T07:43:29.051Z,78.15
2023-02-24T07:44:29.035Z,78.62
2023-02-24T07:45:29.109Z,78.34
2023-02-24T07:46:29.063Z,78.43
2023-02-24T07:47:29.016Z,78.43
2023-02-24T07:48:28.967Z,78.91
2023-02-24T07:49:29.008Z,78.72
2023-02-24T07:50:28.980Z,79
2023-02-24T07:51:28.666Z,78.72
2023-02-24T07:52:28.645Z,79.1
2023-02-24T07:53:28.881Z,78.81
2023-02-24T07:54:28.614Z,79.57
2023-02-24T07:55:28.865Z,79.47
2023-02-24T07:56:28.584Z,80.04
2023-02-24T07:57:28.588Z,80.33
2023-02-24T07:58:28.810Z,80.8
2023-02-24T07:59:28.795Z,81.27
2023-02-24T08:00:28.785Z,82.13
2023-02-24T08:01:28.756Z,81.37
2023-02-24T08:02:28.837Z,80.99
2023-02-24T08:03:28.469Z,81.47
2023-02-24T08:04:28.793Z,81.56
2023-02-24T08:05:28.879Z,81.47
2023-02-24T08:06:28.676Z,81.14
2023-02-24T08:07:28.412Z,80.71
2023-02-24T08:08:28.649Z,80.71
2023-02-24T08:09:28.630Z,80.71
2023-02-24T08:10:29.387Z,81.47
2023-02-24T08:11:29.518Z,81.05
2023-02-24T08:12:30.695Z,82.04
2023-02-24T08:13:29.232Z,81.9
2023-02-24T08:14:29.475Z,81.9
2023-02-24T08:15:29.454Z,81.9
2023-02-24T08:16:29.439Z,81.37
2023-02-24T08:17:29.229Z,80.62
2023-02-24T08:18:29.406Z,80.8
2023-02-24T08:19:29.389Z,81.09
2023-02-24T08:20:29.421Z,80.71
2023-02-24T08:21:29.454Z,81.37
2023-02-24T08:22:29.339Z,81.47
2023-02-24T08:23:29.332Z,82.23
2023-02-24T08:24:29.051Z,82.04
2023-02-24T08:25:29.035Z,81.75
2023-02-24T08:26:29.392Z,81.75
2023-02-24T08:27:29.255Z,82.13
2023-02-24T08:28:29.116Z,83.17
2023-02-24T08:29:28.984Z,83.74
2023-02-24T08:30:29.067Z,85.07
2023-02-24T08:31:29.627Z,85.64
2023-02-24T08:32:29.408Z,85.93
2023-02-24T08:33:28.924Z,85.74
2023-02-24T08:34:28.895Z,85.17
2023-02-24T08:35:29.133Z,85.45
2023-02-24T08:36:29.126Z,85.6
2023-02-24T08:37:29.150Z,85.97
2023-02-24T08:38:29.091Z,84.98
2023-02-24T08:39:29.079Z,85.17
2023-02-24T08:40:29.072Z,84.41
2023-02-24T08:41:29.042Z,84.98
2023-02-24T08:42:28.760Z,85.64
2023-02-24T08:43:28.755Z,87.35
2023-02-24T08:44:28.994Z,88.29
2023-02-24T08:45:28.968Z,88.96
2023-02-24T08:46:29.749Z,89.06
2023-02-24T08:47:28.973Z,88.87
2023-02-24T08:48:28.671Z,88.68
2023-02-24T08:49:28.657Z,88.48
2023-02-24T08:50:28.709Z,87.63
2023-02-24T08:51:28.842Z,88.2
2023-02-24T08:52:30.197Z,89.53
2023-02-24T08:53:28.920Z,91.05
2023-02-24T08:54:28.824Z,91.9
2023-02-24T08:55:28.811Z,92.94
2023-02-24T08:56:28.799Z,92.94
2023-02-24T08:57:28.796Z,92.38
2023-02-24T08:58:28.768Z,91.52
2023-02-24T08:59:28.756Z,90.1
2023-02-24T09:00:28.910Z,89.72
2023-02-24T09:01:28.534Z,88.77
2023-02-24T09:02:28.710Z,90.1
2023-02-24T09:03:28.701Z,90.1
2023-02-24T09:04:28.761Z,89.95
2023-02-24T09:05:28.393Z,91
2023-02-24T09:06:28.635Z,90.05
2023-02-24T09:07:28.629Z,88.24
2023-02-24T09:08:28.605Z,88.24
2023-02-24T09:09:28.641Z,91.28
2023-02-24T09:10:28.689Z,93.94
2023-02-24T09:11:28.558Z,96.03
2023-02-24T09:12:28.616Z,97.07
2023-02-24T09:13:28.522Z,97.36
2023-02-24T09:14:30.563Z,96.78
2023-02-24T09:15:28.503Z,96.78
2023-02-24T09:16:28.589Z,97.12
2023-02-24T09:17:30.632Z,97.69
2023-02-24T09:18:28.446Z,99.99
2023-02-24T09:19:28.175Z,99.99
2023-02-24T09:20:28.496Z,99.99
2023-02-24T09:21:28.404Z,99.99
2023-02-24T09:22:28.130Z,99.99
2023-02-24T09:23:28.112Z,99.99
2023-02-24T09:24:28.349Z,99.99
2023-02-24T09:25:28.472Z,99.99
2023-02-24T09:26:28.323Z,99.99
2023-02-24T09:27:28.054Z,99.99
2023-02-24T09:28:28.447Z,99.99
2023-02-24T09:29:28.271Z,99.99
2023-02-24T09:30:28.365Z,99.99
2023-02-24T09:31:29.100Z,99.99
2023-02-24T09:32:28.572Z,99.99
2023-02-24T09:33:28.243Z,99.99
2023-02-24T09:34:28.216Z,99.99
2023-02-24T09:35:28.219Z,99.99
2023-02-24T09:36:28.321Z,99.99
2023-02-24T09:37:28.151Z,99.99
2023-02-24T09:38:28.148Z,99.99
2023-02-24T09:39:27.864Z,99.99
2023-02-24T09:40:28.109Z,99.99
2023-02-24T09:41:28.178Z,99.99
2023-02-24T09:42:28.087Z,99.97
2023-02-24T09:43:27.812Z,99.99
2023-02-24T09:44:28.058Z,99.99
2023-02-24T09:45:27.977Z,99.99
2023-02-24T09:46:27.999Z,99.99
2023-02-24T09:47:28.001Z,99.99
2023-02-24T09:48:27.987Z,99.99
2023-02-24T09:49:28.009Z,99.99
2023-02-24T09:51:03.528Z,99.99
2023-02-24T09:51:27.691Z,99.99
2023-02-24T09:52:27.934Z,99.99
2023-02-24T09:53:27.923Z,99.99
2023-02-24T09:54:27.914Z,99.99
2023-02-24T09:55:27.928Z,99.99
2023-02-24T09:56:27.866Z,99.99
2023-02-24T09:57:28.089Z,99.99
2023-02-24T09:58:43.873Z,99.99
2023-02-24T09:59:27.828Z,99.99
2023-02-24T10:00:27.852Z,99.99
2023-02-24T10:01:27.955Z,99.99
2023-02-24T10:02:27.910Z,99.99
2023-02-24T10:03:27.774Z,99.99
2023-02-24T10:04:27.755Z,99.99
2023-02-24T10:05:27.551Z,99.99
2023-02-24T10:06:27.468Z,99.99
2023-02-24T10:07:27.742Z,99.99
2023-02-24T10:08:27.444Z,99.99
2023-02-24T10:09:27.723Z,99.99
2023-02-24T10:10:27.684Z,99.99
2023-02-24T10:11:27.658Z,99.99
2023-02-24T10:12:27.641Z,99.99
2023-02-24T10:13:27.679Z,99.99
2023-02-24T10:14:41.706Z,99.99
2023-02-24T10:15:27.597Z,99.99
2023-02-24T10:16:27.761Z,99.99
2023-02-24T10:17:27.603Z,99.99
2023-02-24T10:18:27.575Z,99.99
2023-02-24T10:19:27.545Z,99.99
2023-02-24T10:20:27.533Z,99.99
2023-02-24T10:21:27.510Z,99.99
2023-02-24T10:22:27.586Z,99.99
2023-02-24T10:23:27.228Z,99.99
2023-02-24T10:24:27.468Z,99.99
2023-02-24T10:25:27.451Z,99.99
2023-02-24T10:26:27.452Z,99.99
2023-02-24T10:27:27.436Z,99.99
2023-02-24T10:28:27.163Z,99.99
2023-02-24T10:29:27.506Z,99.99
2023-02-24T10:30:27.868Z,99.99
2023-02-24T10:31:28.644Z,99.99
2023-02-24T10:32:27.694Z,99.99
2023-02-24T10:33:27.363Z,99.99
2023-02-24T10:34:27.319Z,99.99
2023-02-24T10:35:27.057Z,99.99
2023-02-24T10:36:27.319Z,99.99
2023-02-24T10:37:31.920Z,99.99
2023-02-24T10:38:27.011Z,99.99
2023-02-24T10:39:27.019Z,99.99
2023-02-24T10:40:27.387Z,99.99
2023-02-24T10:41:27.230Z,99.99
2023-02-24T10:42:26.960Z,99.99
2023-02-24T10:43:27.248Z,99.99
2023-02-24T10:44:27.261Z,99.99
2023-02-24T10:45:27.278Z,99.99
2023-02-24T10:46:43.212Z,99.99
2023-02-24T10:47:27.134Z,99.99
2023-02-24T10:48:43.137Z,99.99
2023-02-24T10:49:27.110Z,99.99
2023-02-24T10:50:27.093Z,99.99
2023-02-24T10:51:27.432Z,99.99
2023-02-24T10:52:27.069Z,99.99
2023-02-24T10:53:27.055Z,99.99
2023-02-24T10:54:26.773Z,99.99
2023-02-24T10:55:26.783Z,99.99
2023-02-24T10:56:27.090Z,99.99
2023-02-24T10:57:26.995Z,99.99
2023-02-24T10:58:26.974Z,99.99
2023-02-24T10:59:27.385Z,99.99
2023-02-24T11:00:26.938Z,99.99
2023-02-24T11:01:27.426Z,99.99
2023-02-24T11:02:27.408Z,99.99
2023-02-24T11:03:34.821Z,99.99
2023-02-24T11:04:26.884Z,99.99
2023-02-24T11:05:26.611Z,99.99
2023-02-24T11:06:26.851Z,99.99
2023-02-24T11:07:26.826Z,99.99
2023-02-24T11:08:26.557Z,99.99
2023-02-24T11:09:26.794Z,99.99
2023-02-24T11:10:26.782Z,99.99
2023-02-24T11:11:26.500Z,99.99
2023-02-24T11:12:26.769Z,99.99
2023-02-24T11:13:26.732Z,99.99
2023-02-24T11:14:26.718Z,99.99
2023-02-24T11:15:26.754Z,99.99
2023-02-24T11:16:26.829Z,99.99
2023-02-24T11:17:27.177Z,99.99
2023-02-24T11:18:26.677Z,99.99
2023-02-24T11:19:26.647Z,99.99
2023-02-24T11:20:33.602Z,99.99
2023-02-24T11:21:26.713Z,99.99
2023-02-24T11:22:26.591Z,99.99
2023-02-24T11:23:26.567Z,99.99
2023-02-24T11:24:26.556Z,99.99
2023-02-24T11:25:26.547Z,99.99
2023-02-24T11:26:26.562Z,99.99
2023-02-24T11:27:26.511Z,99.99
2023-02-24T11:28:26.504Z,99.99
2023-02-24T11:29:26.228Z,99.99
2023-02-24T11:30:26.511Z,99.99
2023-02-24T11:31:27.570Z,99.99
2023-02-24T11:32:26.516Z,99.99
2023-02-24T11:33:26.488Z,99.99
2023-02-24T11:34:26.204Z,99.99
2023-02-24T11:35:26.402Z,99.99
2023-02-24T11:36:26.370Z,99.99
2023-02-24T11:37:26.103Z,99.99
2023-02-24T11:38:26.345Z,99.99
2023-02-24T11:39:26.071Z,99.99
2023-02-24T11:40:26.156Z,99.99
2023-02-24T11:41:26.800Z,99.99
2023-02-24T11:42:26.280Z,99.99
2023-02-24T11:43:26.051Z,99.99
2023-02-24T11:44:26.268Z,99.99
2023-02-24T11:45:26.245Z,99.99
2023-02-24T11:46:26.078Z,99.99
2023-02-24T11:47:26.219Z,99.99
2023-02-24T11:48:26.192Z,99.99
2023-02-24T11:49:26.271Z,99.99
2023-02-24T11:50:26.166Z,99.99
2023-02-24T11:51:26.534Z,99.99
2023-02-24T11:52:26.160Z,99.99
2023-02-24T11:53:26.127Z,99.99
2023-02-24T11:54:25.863Z,99.99
2023-02-24T11:55:27.375Z,99.99
2023-02-24T11:56:26.252Z,99.99
2023-02-24T11:57:26.114Z,99.99
2023-02-24T11:58:25.797Z,99.99
2023-02-24T11:59:26.693Z,99.99
2023-02-24T12:00:26.894Z,99.99
2023-02-24T12:01:27.170Z,99.99
2023-02-24T12:02:26.957Z,99.99
2023-02-24T12:03:26.404Z,99.99
2023-02-24T12:04:26.839Z,99.99
2023-02-24T12:05:27.189Z,99.99
2023-02-24T12:06:26.096Z,99.99
2023-02-24T12:07:26.408Z,99.99
2023-02-24T12:08:26.721Z,99.99
2023-02-24T12:09:26.812Z,99.99
2023-02-24T12:10:27.314Z,99.99
2023-02-24T12:11:27.269Z,99.99
2023-02-24T12:12:26.859Z,99.99
2023-02-24T12:13:26.859Z,99.99
2023-02-24T12:14:26.246Z,99.99
2023-02-24T12:15:27.289Z,99.99
2023-02-24T12:16:26.547Z,99.99
2023-02-24T12:17:26.373Z,99.99
2023-02-24T12:18:26.658Z,99.99
2023-02-24T12:19:26.471Z,99.99
2023-02-24T12:20:26.350Z,99.99
2023-02-24T12:21:27.263Z,99.99
2023-02-24T12:22:26.140Z,99.99
2023-02-24T12:23:25.866Z,99.99
2023-02-24T12:24:26.117Z,99.99
2023-02-24T12:25:26.086Z,99.99
2023-02-24T12:26:26.077Z,99.99
2023-02-24T12:27:26.069Z,99.99
2023-02-24T12:28:26.042Z,99.99
2023-02-24T12:29:25.773Z,99.99
2023-02-24T12:30:26.121Z,99.99
2023-02-24T12:31:27.047Z,99.99
2023-02-24T12:32:26.082Z,99.99
2023-02-24T12:33:25.980Z,99.99
2023-02-24T12:34:25.960Z,99.99
2023-02-24T12:35:25.970Z,99.99
2023-02-24T12:36:25.924Z,99.99
2023-02-24T12:37:25.961Z,99.99
2023-02-24T12:38:25.913Z,99.99
2023-02-24T12:39:25.884Z,99.99
2023-02-24T12:40:25.868Z,99.99
2023-02-24T12:41:26.215Z,99.99
2023-02-24T12:42:25.591Z,99.99
2023-02-24T12:43:25.819Z,99.99
2023-02-24T12:44:25.818Z,99.99
2023-02-24T12:45:25.533Z,99.99
2023-02-24T12:46:25.963Z,99.99
2023-02-24T12:47:25.762Z,99.99
2023-02-24T12:48:25.744Z,99.99
2023-02-24T12:49:25.485Z,99.99
2023-02-24T12:50:25.480Z,99.99
2023-02-24T12:51:26.160Z,99.99
2023-02-24T12:52:25.680Z,99.99
2023-02-24T12:53:25.825Z,99.99
2023-02-24T12:54:25.402Z,99.99
2023-02-24T12:55:25.392Z,99.99
2023-02-24T12:56:25.628Z,99.99
2023-02-24T12:57:25.617Z,99.99
2023-02-24T12:58:25.726Z,99.99
2023-02-24T12:59:25.578Z,99.99
2023-02-24T13:00:25.303Z,99.99
2023-02-24T13:01:26.145Z,99.99
2023-02-24T13:02:25.742Z,99.99
2023-02-24T13:03:25.266Z,99.99
2023-02-24T13:04:25.331Z,99.99
2023-02-24T13:05:25.492Z,99.99
2023-02-24T13:06:25.477Z,99.99
2023-02-24T13:07:25.460Z,99.99
2023-02-24T13:08:25.452Z,99.99
2023-02-24T13:09:25.570Z,99.99
2023-02-24T13:10:25.421Z,99.99